Time;durP1;ratioP1;P1;durP2;ratioP2;P2;SDS_P1;SDS_P2;PMS_P1;PMS_P2;Temp;Humidity;BMP_temperature;BMP_pressure;BME280_temperature;BME280_humidity;BME280_pressure;Samples;Min_cycle;Max_cycle;Signal;HPM_P1;HPM_P2
2021/06/08 00:00:38;;;;;;;80.73;42.93;;;;;;;14.59;nan;97026.78;3507840;40;20463;-72
2021/06/08 00:03:06;;;;;;;80.07;42.77;;;;;;;14.74;nan;97025.59;3506731;40;20939;-71
2021/06/08 00:05:34;;;;;;;86.33;42.77;;;;;;;14.64;nan;97024.63;3507413;40;20939;-71
2021/06/08 00:08:03;;;;;;;79.87;45.23;;;;;;;14.70;nan;97033.84;3507476;40;20624;-73
2021/06/08 00:10:30;;;;;;;73.77;40.70;;;;;;;14.76;nan;97028.09;3507225;40;20844;-74
2021/06/08 00:12:58;;;;;;;77.47;44.70;;;;;;;14.89;nan;97030.59;3505780;40;20459;-71
2021/06/08 00:15:25;;;;;;;83.23;44.53;;;;;;;14.76;nan;97028.94;3506580;40;20709;-72
2021/06/08 00:17:54;;;;;;;77.03;45.03;;;;;;;14.69;nan;97037.44;3497729;40;20971;-73
2021/06/08 00:20:22;;;;;;;72.50;42.40;;;;;;;14.68;nan;97036.63;3506400;40;20740;-72
2021/06/08 00:22:49;;;;;;;73.80;40.20;;;;;;;14.62;nan;97039.72;3506858;40;20994;-73
2021/06/08 00:25:17;;;;;;;80.70;44.57;;;;;;;14.80;nan;97042.72;3506374;40;20797;-72
2021/06/08 00:27:44;;;;;;;76.53;43.47;;;;;;;14.77;nan;97035.88;3506968;40;20440;-72
2021/06/08 00:30:13;;;;;;;67.67;39.30;;;;;;;14.78;nan;97037.56;3505213;40;20712;-72
2021/06/08 00:32:40;;;;;;;76.13;42.97;;;;;;;14.77;nan;97038.50;3506080;40;20927;-71
2021/06/08 00:35:10;;;;;;;74.03;42.70;;;;;;;14.70;nan;97036.47;3507156;40;20514;-71
2021/06/08 00:37:39;;;;;;;74.80;41.87;;;;;;;14.67;nan;97040.19;3506982;40;20463;-73
2021/06/08 00:40:07;;;;;;;84.50;44.60;;;;;;;14.65;nan;97030.75;3505979;40;20948;-72
2021/06/08 00:42:36;;;;;;;74.40;44.30;;;;;;;14.58;nan;97036.50;3496443;40;20470;-71
2021/06/08 00:45:06;;;;;;;79.43;43.30;;;;;;;14.74;nan;97032.63;3505624;40;20578;-73
2021/06/08 00:47:33;;;;;;;87.43;45.23;;;;;;;14.64;nan;97035.16;3505265;40;20463;-72
2021/06/08 00:50:01;;;;;;;77.80;42.13;;;;;;;14.60;nan;97017.91;3505739;40;20489;-73
2021/06/08 00:52:29;;;;;;;81.90;43.73;;;;;;;14.80;nan;97033.00;3505871;40;20448;-72
2021/06/08 00:54:57;;;;;;;86.13;45.47;;;;;;;14.80;nan;97035.66;3505554;40;20834;-74
2021/06/08 00:57:24;;;;;;;92.13;47.13;;;;;;;14.85;nan;97035.28;3506045;40;21173;-73
2021/06/08 00:59:52;;;;;;;88.53;45.50;;;;;;;14.79;nan;97039.22;3496893;40;21015;-73
2021/06/08 01:02:19;;;;;;;72.20;41.77;;;;;;;14.88;nan;97036.81;3497374;40;20460;-72
2021/06/08 01:04:47;;;;;;;77.23;46.33;;;;;;;14.91;nan;97031.31;3506254;40;20938;-74
2021/06/08 01:07:14;;;;;;;84.47;42.73;;;;;;;14.93;nan;97032.03;3505661;40;20443;-73
2021/06/08 01:09:43;;;;;;;73.80;42.70;;;;;;;14.89;nan;97022.69;3505661;40;20673;-73
2021/06/08 01:12:10;;;;;;;82.03;43.77;;;;;;;14.90;nan;97024.38;3505813;40;20844;-71
2021/06/08 01:14:38;;;;;;;80.33;42.87;;;;;;;14.82;nan;97022.34;3505046;40;20486;-72
2021/06/08 01:17:05;;;;;;;74.27;41.77;;;;;;;14.88;nan;97021.00;3505433;40;20840;-72
2021/06/08 01:19:34;;;;;;;83.70;45.53;;;;;;;14.87;nan;97021.97;3505906;40;20931;-71
2021/06/08 01:22:03;;;;;;;75.20;44.17;;;;;;;14.93;nan;97019.69;3505589;40;20467;-71
2021/06/08 01:24:31;;;;;;;76.80;44.97;;;;;;;14.89;nan;97023.53;3503616;40;20589;-74
2021/06/08 01:26:58;;;;;;;72.93;43.87;;;;;;;14.86;nan;97020.28;3493107;40;20472;-74
2021/06/08 01:29:28;;;;;;;86.23;45.57;;;;;;;14.86;nan;97030.84;3505527;40;20573;-72
2021/06/08 01:32:12;;;;;;;78.10;44.47;;;;;;;14.80;nan;97021.63;3482746;40;20492;-73
2021/06/08 01:34:41;;;;;;;82.67;45.00;;;;;;;14.79;nan;97026.06;3504781;40;20541;-73
2021/06/08 01:37:10;;;;;;;98.53;43.77;;;;;;;14.76;nan;97028.09;3506215;40;20836;-73
2021/06/08 01:39:38;;;;;;;82.87;45.90;;;;;;;14.74;nan;97025.59;3505196;40;20580;-73
2021/06/08 01:42:07;;;;;;;85.20;47.20;;;;;;;14.77;nan;97024.50;3507050;40;20499;-73
2021/06/08 01:44:34;;;;;;;86.83;46.30;;;;;;;14.78;nan;97027.03;3505526;40;20852;-71
2021/06/08 01:47:02;;;;;;;81.33;44.70;;;;;;;14.81;nan;97015.38;3505828;40;20455;-72
2021/06/08 01:49:29;;;;;;;92.30;47.20;;;;;;;14.82;nan;97010.00;3505577;40;20459;-71
2021/06/08 01:52:04;;;;;;;82.97;46.60;;;;;;;14.78;nan;97019.13;3496480;40;20483;-72
2021/06/08 01:54:36;;;;;;;86.83;43.73;;;;;;;14.82;nan;97022.34;3507391;40;21114;-71
2021/06/08 01:57:09;;;;;;;88.20;45.17;;;;;;;14.73;nan;97008.09;3506171;40;20788;-72
2021/06/08 01:59:49;;;;;;;91.70;47.17;;;;;;;14.76;nan;97014.91;3505331;40;20475;-73
2021/06/08 02:02:24;;;;;;;87.93;45.37;;;;;;;14.71;nan;97025.81;3506846;40;21109;-71
2021/06/08 02:05:02;;;;;;;89.80;48.40;;;;;;;14.70;nan;97018.88;3506846;40;20481;-71
2021/06/08 02:07:35;;;;;;;91.40;48.90;;;;;;;14.68;nan;97020.81;3506612;40;20946;-71
2021/06/08 02:10:27;;;;;;;98.77;49.33;;;;;;;14.59;nan;97024.16;3506721;40;20554;-71
2021/06/08 02:13:06;;;;;;;90.67;47.73;;;;;;;14.60;nan;97023.19;3506969;40;20855;-73
2021/06/08 02:15:40;;;;;;;99.57;47.77;;;;;;;14.63;nan;97023.78;3496045;40;20533;-72
2021/06/08 02:18:10;;;;;;;108.93;50.37;;;;;;;14.61;nan;97015.16;3506441;40;20816;-71
2021/06/08 02:20:40;;;;;;;108.67;52.97;;;;;;;14.64;nan;97019.34;3499135;40;20566;-71
2021/06/08 02:23:11;;;;;;;118.80;53.33;;;;;;;14.62;nan;97006.31;3506839;40;21142;-72
2021/06/08 02:25:40;;;;;;;115.90;47.70;;;;;;;14.64;nan;97014.06;3508255;40;21099;-71
2021/06/08 02:28:12;;;;;;;99.23;49.87;;;;;;;14.61;nan;97007.25;3507753;40;20927;-73
2021/06/08 02:30:43;;;;;;;113.43;48.63;;;;;;;14.64;nan;97014.06;3507265;40;20899;-73
2021/06/08 02:33:12;;;;;;;97.47;47.70;;;;;;;14.59;nan;97006.53;3507574;40;20491;-71
2021/06/08 02:35:40;;;;;;;90.27;47.70;;;;;;;14.63;nan;97012.41;3505632;40;20467;-72
2021/06/08 02:38:08;;;;;;;115.27;47.77;;;;;;;14.66;nan;97014.78;3506859;40;20451;-72
2021/06/08 02:40:39;;;;;;;125.50;52.83;;;;;;;14.68;nan;97017.31;3508035;40;20888;-72
2021/06/08 02:43:07;;;;;;;132.73;59.57;;;;;;;14.67;nan;97011.22;3507374;40;20444;-72
2021/06/08 02:45:35;;;;;;;115.57;48.47;;;;;;;14.64;nan;97003.53;3506773;40;20475;-72
2021/06/08 02:48:03;;;;;;;111.77;48.63;;;;;;;14.69;nan;97005.81;3507586;40;21218;-72
2021/06/08 02:50:31;;;;;;;182.80;50.47;;;;;;;14.57;nan;97010.25;3507049;40;20713;-72
2021/06/08 02:52:59;;;;;;;150.43;48.27;;;;;;;14.58;nan;97015.41;3506335;40;20542;-71
2021/06/08 02:55:27;;;;;;;154.53;48.40;;;;;;;14.54;nan;97013.09;3506816;40;20864;-72
2021/06/08 02:57:58;;;;;;;122.80;46.93;;;;;;;14.52;nan;97026.38;3493534;40;20468;-72
2021/06/08 03:00:26;;;;;;;139.67;46.97;;;;;;;14.55;nan;97020.88;3506303;40;20778;-72
2021/06/08 03:02:57;;;;;;;123.03;45.40;;;;;;;14.56;nan;97025.25;3498022;40;20567;-72
2021/06/08 03:05:27;;;;;;;103.83;45.63;;;;;;;14.48;nan;97027.59;3505889;40;20488;-72
2021/06/08 03:07:58;;;;;;;104.93;45.27;;;;;;;14.54;nan;97034.19;3506468;40;21167;-72
2021/06/08 03:10:30;;;;;;;235.27;51.43;;;;;;;14.58;nan;97031.22;3506358;40;20848;-72
2021/06/08 03:13:01;;;;;;;119.13;46.87;;;;;;;14.47;nan;97033.81;3506613;40;20898;-72
2021/06/08 03:15:31;;;;;;;95.80;45.30;;;;;;;14.61;nan;97043.31;3505553;40;20876;-71
2021/06/08 03:17:58;;;;;;;103.10;45.20;;;;;;;14.53;nan;97040.41;3506292;40;20751;-72
2021/06/08 03:20:32;;;;;;;86.00;41.03;;;;;;;14.56;nan;97040.16;3497057;40;20451;-72
2021/06/08 03:23:02;;;;;;;98.40;44.20;;;;;;;14.60;nan;97039.00;3505577;40;20986;-71
2021/06/08 03:25:31;;;;;;;138.83;46.93;;;;;;;14.63;nan;97036.13;3506082;40;20841;-71
2021/06/08 03:28:02;;;;;;;87.60;43.67;;;;;;;14.60;nan;97036.38;3506074;40;20666;-72
2021/06/08 03:30:30;;;;;;;116.83;44.30;;;;;;;14.66;nan;97038.50;3495031;40;20589;-73
2021/06/08 03:32:58;;;;;;;107.17;43.60;;;;;;;14.63;nan;97038.78;3507606;40;20589;-72
2021/06/08 03:35:29;;;;;;;93.40;45.53;;;;;;;14.70;nan;97036.47;3506938;40;20744;-72
2021/06/08 03:37:57;;;;;;;94.83;45.10;;;;;;;14.65;nan;97031.59;3507910;40;20764;-72
2021/06/08 03:40:26;;;;;;;101.57;44.93;;;;;;;14.66;nan;97035.88;3507178;40;20682;-72
2021/06/08 03:42:54;;;;;;;107.20;44.83;;;;;;;14.66;nan;97038.50;3508534;40;20887;-73
2021/06/08 03:45:23;;;;;;;96.03;45.80;;;;;;;14.72;nan;97040.69;3507290;40;20979;-72
2021/06/08 03:47:54;;;;;;;123.90;49.60;;;;;;;14.68;nan;97036.63;3508073;40;20470;-72
2021/06/08 03:50:22;;;;;;;106.57;47.97;;;;;;;14.59;nan;97032.91;3506147;40;20546;-73
2021/06/08 03:52:50;;;;;;;112.10;47.27;;;;;;;14.68;nan;97036.63;3508138;40;20455;-73
2021/06/08 03:55:19;;;;;;;191.20;49.40;;;;;;;14.76;nan;97044.75;3506055;40;20489;-72
2021/06/08 03:57:51;;;;;;;120.07;46.93;;;;;;;14.67;nan;97040.19;3507296;40;20674;-73
2021/06/08 04:00:20;;;;;;;108.63;46.40;;;;;;;14.53;nan;97033.34;3506321;40;20789;-72
2021/06/08 04:02:50;;;;;;;116.97;47.30;;;;;;;14.61;nan;97036.25;3507283;40;20840;-72
2021/06/08 04:05:19;;;;;;;102.70;47.77;;;;;;;14.70;nan;97037.34;3506434;40;20805;-72
2021/06/08 04:07:48;;;;;;;103.33;45.87;;;;;;;14.72;nan;97037.19;3507815;40;20452;-73
2021/06/08 04:10:19;;;;;;;134.70;49.00;;;;;;;14.70;nan;97039.13;3507411;40;20468;-72
2021/06/08 04:12:47;;;;;;;103.53;46.07;;;;;;;14.74;nan;97036.13;3498960;40;20756;-72
2021/06/08 04:15:15;;;;;;;121.57;48.90;;;;;;;14.77;nan;97035.88;3505289;40;20920;-71
2021/06/08 04:17:43;;;;;;;95.90;45.80;;;;;;;14.72;nan;97038.06;3507173;40;20451;-71
2021/06/08 04:20:13;;;;;;;100.57;47.23;;;;;;;14.66;nan;97037.69;3506520;40;20480;-71
2021/06/08 04:22:44;;;;;;;93.30;46.07;;;;;;;14.66;nan;97041.16;3507385;40;20459;-72
2021/06/08 04:25:13;;;;;;;89.50;44.80;;;;;;;14.72;nan;97047.75;3506098;40;20495;-73
2021/06/08 04:27:41;;;;;;;116.37;47.50;;;;;;;14.64;nan;97043.06;3498707;40;20596;-71
2021/06/08 04:30:10;;;;;;;92.73;45.87;;;;;;;14.72;nan;97048.59;3506161;40;20784;-72
2021/06/08 04:32:41;;;;;;;94.13;49.00;;;;;;;14.80;nan;97045.38;3507733;40;20939;-73
2021/06/08 04:35:10;;;;;;;96.90;45.67;;;;;;;14.88;nan;97047.38;3506652;40;20535;-72
2021/06/08 04:37:39;;;;;;;114.97;48.97;;;;;;;14.73;nan;97045.00;3506380;40;20793;-73
2021/06/08 04:40:08;;;;;;;91.80;47.27;;;;;;;14.71;nan;97054.00;3505123;40;20484;-74
2021/06/08 04:42:36;;;;;;;101.53;44.57;;;;;;;14.62;nan;97051.13;3506239;40;20541;-73
2021/06/08 04:45:08;;;;;;;89.20;45.00;;;;;;;14.82;nan;97046.91;3506270;40;20490;-74
2021/06/08 04:47:36;;;;;;;84.90;43.90;;;;;;;14.73;nan;97052.91;3507809;40;20558;-73
2021/06/08 04:50:04;;;;;;;81.77;43.77;;;;;;;14.60;nan;97046.91;3506149;40;20737;-72
2021/06/08 04:52:31;;;;;;;83.20;45.90;;;;;;;14.79;nan;97055.03;3505928;40;20792;-72
2021/06/08 04:55:00;;;;;;;78.50;44.30;;;;;;;14.90;nan;97056.03;3504691;40;20777;-72
2021/06/08 04:57:28;;;;;;;77.50;43.30;;;;;;;14.91;nan;97055.88;3507139;40;20538;-73
2021/06/08 05:00:01;;;;;;;72.60;42.13;;;;;;;14.98;nan;97058.88;3507258;40;20776;-73
2021/06/08 05:02:35;;;;;;;72.27;40.60;;;;;;;15.01;nan;97058.63;3498102;40;20558;-72
2021/06/08 05:05:08;;;;;;;79.07;42.70;;;;;;;15.01;nan;97050.72;3506231;40;20802;-71
2021/06/08 05:07:38;;;;;;;75.50;41.83;;;;;;;14.99;nan;97045.59;3505035;40;20463;-70
2021/06/08 05:10:12;;;;;;;78.20;42.30;;;;;;;15.08;nan;97059.81;3506319;40;20556;-71
2021/06/08 05:12:43;;;;;;;74.93;42.17;;;;;;;15.11;nan;97058.72;3506897;40;20580;-71
2021/06/08 05:15:14;;;;;;;71.13;42.00;;;;;;;15.02;nan;97062.97;3504675;40;20463;-72
2021/06/08 05:17:44;;;;;;;84.80;44.67;;;;;;;15.03;nan;97062.84;3506527;40;20708;-72
2021/06/08 05:20:15;;;;;;;82.60;46.50;;;;;;;15.11;nan;97056.09;3506324;40;20459;-73
2021/06/08 05:22:43;;;;;;;82.13;44.00;;;;;;;15.13;nan;97060.31;3507296;40;20858;-72
2021/06/08 05:25:13;;;;;;;85.10;41.50;;;;;;;15.18;nan;97059.94;3505939;40;20724;-72
2021/06/08 05:27:40;;;;;;;73.53;40.53;;;;;;;15.20;nan;97066.75;3506797;40;20530;-72
2021/06/08 05:30:09;;;;;;;68.60;39.87;;;;;;;15.25;nan;97061.13;3506624;40;20459;-71
2021/06/08 05:32:37;;;;;;;68.43;38.53;;;;;;;15.11;nan;97067.50;3506117;40;20554;-72
2021/06/08 05:35:07;;;;;;;60.60;36.70;;;;;;;15.17;nan;97069.66;3506962;40;20718;-73
2021/06/08 05:37:41;;;;;;;68.63;41.03;;;;;;;15.20;nan;97074.66;3507830;40;20895;-72
2021/06/08 05:40:13;;;;;;;79.10;39.40;;;;;;;15.31;nan;97071.19;3507314;40;20486;-73
2021/06/08 05:42:41;;;;;;;73.63;40.30;;;;;;;15.36;nan;97079.53;3510885;40;20449;-71
2021/06/08 05:45:10;;;;;;;81.03;42.40;;;;;;;15.33;nan;97082.44;3507855;40;20764;-72
2021/06/08 05:47:37;;;;;;;74.77;41.50;;;;;;;15.41;nan;97073.91;3507543;40;20436;-72
2021/06/08 05:50:06;;;;;;;73.83;41.40;;;;;;;15.42;nan;97080.84;3506586;40;20871;-73
2021/06/08 05:52:35;;;;;;;81.73;42.30;;;;;;;15.43;nan;97083.38;3507624;40;20523;-71
2021/06/08 05:55:03;;;;;;;75.60;41.50;;;;;;;15.54;nan;97086.94;3507591;40;20914;-73
2021/06/08 05:57:32;;;;;;;82.80;44.80;;;;;;;15.43;nan;97086.00;3507694;40;20463;-71
2021/06/08 06:00:04;;;;;;;88.77;40.70;;;;;;;15.37;nan;97083.03;3505294;40;20649;-71
2021/06/08 06:02:34;;;;;;;69.30;40.17;;;;;;;15.38;nan;97082.06;3505675;40;20447;-72
2021/06/08 06:05:02;;;;;;;63.10;38.07;;;;;;;15.32;nan;97079.94;3505214;40;21156;-71
2021/06/08 06:07:31;;;;;;;68.23;38.07;;;;;;;15.32;nan;97077.28;3506167;40;20471;-72
2021/06/08 06:09:58;;;;;;;71.67;38.80;;;;;;;15.30;nan;97087.13;3505597;40;20463;-72
2021/06/08 06:12:27;;;;;;;73.50;38.47;;;;;;;15.22;nan;97082.47;3506335;40;20677;-72
2021/06/08 06:15:03;;;;;;;67.77;38.37;;;;;;;15.26;nan;97088.34;3505596;40;20851;-71
2021/06/08 06:17:34;;;;;;;67.60;36.30;;;;;;;15.30;nan;97095.03;3499136;40;20734;-72
2021/06/08 06:20:05;;;;;;;69.47;37.53;;;;;;;15.44;nan;97086.84;3504235;40;20561;-72
2021/06/08 06:22:35;;;;;;;62.10;35.80;;;;;;;15.21;nan;97089.53;3504856;40;20836;-73
2021/06/08 06:25:03;;;;;;;78.53;40.43;;;;;;;15.39;nan;97083.75;3505588;40;20530;-70
2021/06/08 06:27:33;;;;;;;84.30;38.60;;;;;;;15.30;nan;97081.84;3505807;40;20772;-71
2021/06/08 06:30:05;;;;;;;65.97;39.00;;;;;;;15.26;nan;97091.81;3506125;40;20483;-73
2021/06/08 06:32:33;;;;;;;63.47;37.27;;;;;;;15.08;nan;97093.28;3504560;40;20875;-72
2021/06/08 06:35:01;;;;;;;72.10;37.60;;;;;;;15.27;nan;97087.38;3504410;40;20840;-71
2021/06/08 06:37:29;;;;;;;66.63;35.40;;;;;;;15.38;nan;97088.19;3505671;40;20818;-72
2021/06/08 06:40:00;;;;;;;63.97;36.57;;;;;;;15.39;nan;97094.31;3505583;40;20502;-71
2021/06/08 06:42:31;;;;;;;60.90;35.17;;;;;;;15.45;nan;97096.47;3507507;40;20799;-71
2021/06/08 06:45:03;;;;;;;57.23;35.30;;;;;;;15.70;nan;97097.94;3507247;40;20463;-72
2021/06/08 06:47:32;;;;;;;61.30;35.33;;;;;;;15.65;nan;97096.66;3505779;40;20463;-71
2021/06/08 06:50:02;;;;;;;62.00;34.70;;;;;;;15.59;nan;97093.53;3497426;40;20752;-71
2021/06/08 06:52:30;;;;;;;60.07;34.13;;;;;;;15.71;nan;97104.06;3500338;40;20471;-72
2021/06/08 06:54:58;;;;;;;59.50;34.23;;;;;;;15.76;nan;97101.94;3508166;40;20796;-73
2021/06/08 06:57:26;;;;;;;57.37;31.63;;;;;;;15.78;nan;97105.28;3509304;40;20944;-71
2021/06/08 06:59:53;;;;;;;61.03;33.50;;;;;;;15.57;nan;97105.19;3499328;40;21010;-71
2021/06/08 07:02:23;;;;;;;56.00;34.30;;;;;;;15.74;nan;97109.09;3508726;40;20511;-73
2021/06/08 07:04:54;;;;;;;57.57;33.60;;;;;;;15.77;nan;97096.50;3497939;40;20554;-71
2021/06/08 07:07:23;;;;;;;57.83;35.30;;;;;;;15.87;nan;97104.50;3508511;40;20450;-72
2021/06/08 07:09:51;;;;;;;60.90;33.97;;;;;;;15.83;nan;97103.06;3508162;40;20569;-73
2021/06/08 07:12:20;;;;;;;61.73;34.53;;;;;;;15.89;nan;97105.22;3507713;40;20458;-70
2021/06/08 07:14:48;;;;;;;66.07;38.77;;;;;;;15.87;nan;97101.84;3498919;40;20764;-72
2021/06/08 07:17:17;;;;;;;60.03;34.33;;;;;;;15.94;nan;97100.41;3507979;40;20833;-71
2021/06/08 07:19:46;;;;;;;56.53;32.07;;;;;;;15.83;nan;97084.59;3497935;40;20448;-72
2021/06/08 07:22:15;;;;;;;55.80;32.97;;;;;;;16.16;nan;97102.09;3507268;40;21159;-70
2021/06/08 07:24:43;;;;;;;66.03;33.87;;;;;;;16.26;nan;97099.50;3507432;40;20550;-71
2021/06/08 07:27:13;;;;;;;53.73;33.50;;;;;;;16.33;nan;97081.34;3507177;40;21215;-73
2021/06/08 07:29:41;;;;;;;55.83;32.30;;;;;;;16.28;nan;97104.69;3506217;40;21130;-71
2021/06/08 07:32:17;;;;;;;52.77;32.37;;;;;;;16.49;nan;97105.50;3490828;40;20563;-73
2021/06/08 07:34:49;;;;;;;57.13;36.13;;;;;;;16.37;nan;97102.09;3500918;40;20959;-73
2021/06/08 07:37:22;;;;;;;59.90;33.53;;;;;;;16.31;nan;97097.34;3498129;40;20723;-71
2021/06/08 07:39:53;;;;;;;55.27;33.43;;;;;;;16.33;nan;97100.69;3507373;40;20855;-71
2021/06/08 07:42:25;;;;;;;65.70;36.13;;;;;;;16.25;nan;97102.28;3507107;40;20956;-72
2021/06/08 07:45:01;;;;;;;66.63;34.57;;;;;;;16.04;nan;97100.47;3506875;40;20539;-71
2021/06/08 07:47:31;;;;;;;62.23;36.30;;;;;;;16.21;nan;97102.56;3510113;40;20447;-71
2021/06/08 07:50:00;;;;;;;63.30;38.03;;;;;;;16.44;nan;97109.50;3507697;40;20915;-71
2021/06/08 07:52:30;;;;;;;59.13;35.97;;;;;;;16.44;nan;97105.06;3507242;40;20783;-72
2021/06/08 07:54:58;;;;;;;56.17;37.00;;;;;;;16.34;nan;97105.00;3506462;40;20467;-71
2021/06/08 07:57:26;;;;;;;60.07;36.60;;;;;;;16.34;nan;97105.00;3507599;40;20444;-72
2021/06/08 08:00:09;;;;;;;69.13;37.33;;;;;;;16.41;nan;97106.16;3498350;40;21052;-72
2021/06/08 08:02:36;;;;;;;56.10;35.07;;;;;;;16.54;nan;97107.75;3507326;40;20443;-73
2021/06/08 08:05:09;;;;;;;55.63;37.50;;;;;;;16.26;nan;97110.09;3506331;40;20472;-73
2021/06/08 08:07:39;;;;;;;56.03;37.80;;;;;;;16.38;nan;97111.69;3498174;40;20513;-72
2021/06/08 08:10:08;;;;;;;62.00;37.40;;;;;;;16.19;nan;97108.91;3504873;40;20601;-73
2021/06/08 08:12:37;;;;;;;55.13;36.47;;;;;;;16.35;nan;97080.25;3497519;40;20861;-71
2021/06/08 08:15:06;;;;;;;61.00;37.90;;;;;;;16.56;nan;97105.81;3505866;40;20474;-72
2021/06/08 08:17:34;;;;;;;60.90;36.90;;;;;;;16.68;nan;97110.09;3507877;40;20440;-70
2021/06/08 08:20:05;;;;;;;56.27;36.43;;;;;;;16.33;nan;97100.69;3507282;40;20739;-71
2021/06/08 08:22:33;;;;;;;55.20;36.27;;;;;;;16.61;nan;97108.91;3498361;40;20945;-71
2021/06/08 08:25:02;;;;;;;55.03;34.93;;;;;;;16.74;nan;97101.63;3507782;40;20730;-72
2021/06/08 08:27:30;;;;;;;55.00;37.03;;;;;;;16.82;nan;97116.88;3506514;40;20850;-71
2021/06/08 08:29:57;;;;;;;54.07;36.23;;;;;;;17.04;nan;97105.25;3506079;40;20885;-71
2021/06/08 08:32:25;;;;;;;62.07;38.33;;;;;;;17.16;nan;97104.19;3507349;40;20862;-73
2021/06/08 08:34:52;;;;;;;59.03;37.30;;;;;;;17.11;nan;97113.47;3506691;40;20820;-72
2021/06/08 08:37:19;;;;;;;52.30;35.50;;;;;;;17.10;nan;97107.34;3507977;40;20446;-71
2021/06/08 08:39:49;;;;;;;54.03;35.63;;;;;;;17.19;nan;97108.38;3506989;40;20471;-72
2021/06/08 08:42:21;;;;;;;65.63;39.30;;;;;;;17.15;nan;97106.94;3506203;40;20868;-72
2021/06/08 08:44:48;;;;;;;54.47;35.80;;;;;;;17.26;nan;97109.50;3505753;40;21102;-71
2021/06/08 08:47:16;;;;;;;68.23;37.10;;;;;;;17.35;nan;97106.06;3507453;40;20736;-72
2021/06/08 08:49:44;;;;;;;63.37;36.13;;;;;;;17.63;nan;97105.41;3506319;40;21083;-71
2021/06/08 08:52:13;;;;;;;59.10;35.77;;;;;;;17.77;nan;97111.13;3507436;40;20846;-73
2021/06/08 08:54:43;;;;;;;55.03;36.67;;;;;;;18.18;nan;97103.91;3506487;40;20487;-73
2021/06/08 08:57:11;;;;;;;71.97;37.67;;;;;;;18.19;nan;97102.13;3506790;40;20462;-71
2021/06/08 08:59:40;;;;;;;58.27;35.53;;;;;;;17.53;nan;97103.56;3506640;40;20816;-74
2021/06/08 09:02:09;;;;;;;60.83;36.50;;;;;;;18.00;nan;97102.97;3507091;40;20538;-72
2021/06/08 09:04:37;;;;;;;57.30;35.57;;;;;;;17.78;nan;97099.56;3506318;40;20474;-73
2021/06/08 09:07:05;;;;;;;57.93;36.23;;;;;;;17.70;nan;97107.38;3497632;40;20811;-71
2021/06/08 09:09:33;;;;;;;51.63;35.70;;;;;;;17.71;nan;97103.72;3506427;40;20488;-72
2021/06/08 09:12:04;;;;;;;55.03;35.43;;;;;;;17.96;nan;97106.88;3506972;40;20518;-72
2021/06/08 09:14:31;;;;;;;49.90;33.40;;;;;;;18.23;nan;97110.59;3507128;40;20455;-72
2021/06/08 09:17:01;;;;;;;51.90;35.10;;;;;;;18.62;nan;97107.88;3506447;40;20868;-72
2021/06/08 09:19:30;;;;;;;48.63;33.10;;;;;;;18.89;nan;97113.28;3506186;40;20844;-72
2021/06/08 09:21:58;;;;;;;56.90;36.03;;;;;;;19.03;nan;97109.31;3506238;40;20973;-71
2021/06/08 09:24:26;;;;;;;51.97;35.20;;;;;;;18.78;nan;97114.28;3506388;40;20550;-72
2021/06/08 09:26:56;;;;;;;104.70;66.47;;;;;;;18.91;nan;97121.09;3508850;40;20459;-73
2021/06/08 09:29:31;;;;;;;58.97;36.67;;;;;;;18.63;nan;97118.38;3495641;40;20824;-73
2021/06/08 09:32:19;;;;;;;53.33;35.03;;;;;;;18.68;nan;97123.22;3496965;40;20542;-72
2021/06/08 09:34:49;;;;;;;55.47;35.07;;;;;;;18.65;nan;97121.69;3496527;40;20452;-73
2021/06/08 09:37:33;;;;;;;54.80;37.00;;;;;;;18.60;nan;97115.97;3497507;40;20604;-72
2021/06/08 09:40:01;;;;;;;50.60;36.53;;;;;;;18.72;nan;97119.34;3497138;40;20479;-72
2021/06/08 09:42:29;;;;;;;53.57;36.43;;;;;;;18.64;nan;97112.09;3496924;40;20847;-73
2021/06/08 09:45:15;;;;;;;48.57;32.57;;;;;;;18.45;nan;97120.09;3496612;40;21133;-72
2021/06/08 09:47:44;;;;;;;56.93;35.70;;;;;;;18.60;nan;97110.69;3496739;40;20912;-71
2021/06/08 09:50:32;;;;;;;49.93;34.87;;;;;;;18.67;nan;97121.56;3495698;40;21113;-72
2021/06/08 09:53:23;;;;;;;55.10;36.37;;;;;;;18.44;nan;97102.50;3492531;40;21172;-73
2021/06/08 09:55:56;;;;;;;44.93;32.47;;;;;;;18.84;nan;97117.38;3496797;40;20464;-72
2021/06/08 09:58:25;;;;;;;46.93;33.03;;;;;;;18.18;nan;97117.16;3497273;40;21150;-71
2021/06/08 10:01:21;;;;;;;52.77;36.13;;;;;;;18.72;nan;97120.16;3496661;40;20719;-71
2021/06/08 10:03:53;;;;;;;45.00;32.33;;;;;;;18.60;nan;97121.28;3495162;40;20813;-72
2021/06/08 10:06:23;;;;;;;48.37;32.67;;;;;;;18.92;nan;97125.44;3495546;40;21086;-74
2021/06/08 10:09:02;;;;;;;47.27;31.73;;;;;;;19.18;nan;97120.31;3495414;40;20580;-73
2021/06/08 10:11:31;;;;;;;56.73;33.73;;;;;;;19.96;nan;97122.53;3497121;40;20503;-71
2021/06/08 10:14:10;;;;;;;45.30;33.40;;;;;;;20.37;nan;97127.38;3496000;40;20468;-73
2021/06/08 10:16:38;;;;;;;49.70;33.90;;;;;;;21.64;nan;97124.97;3497849;40;20896;-72
2021/06/08 10:19:07;;;;;;;44.40;31.60;;;;;;;21.47;nan;97116.06;3498875;40;20456;-72
2021/06/08 10:21:46;;;;;;;54.33;34.20;;;;;;;20.77;nan;97126.03;3498552;40;21083;-72
2021/06/08 10:24:16;;;;;;;43.73;31.53;;;;;;;20.63;nan;97128.25;3496707;40;20523;-71
2021/06/08 10:26:50;;;;;;;47.77;30.47;;;;;;;20.67;nan;97132.25;3498566;40;20897;-70
2021/06/08 10:29:19;;;;;;;42.70;30.20;;;;;;;20.80;nan;97125.72;3503762;40;20795;-71
2021/06/08 10:31:47;;;;;;;45.93;31.37;;;;;;;20.91;nan;97125.44;3498966;40;20839;-72
2021/06/08 10:34:34;;;;;;;42.90;30.30;;;;;;;21.55;nan;97117.09;3505860;40;20731;-72
2021/06/08 10:37:03;;;;;;;58.47;41.30;;;;;;;21.07;nan;97111.38;3507370;40;20693;-72
2021/06/08 10:39:30;;;;;;;45.43;30.30;;;;;;;21.28;nan;97110.97;3507075;40;20974;-71
2021/06/08 10:41:58;;;;;;;44.93;32.87;;;;;;;21.45;nan;97109.25;3507422;40;20574;-72
2021/06/08 10:44:28;;;;;;;47.43;30.47;;;;;;;22.33;nan;97111.41;3507434;40;20989;-71
2021/06/08 10:46:57;;;;;;;36.10;27.67;;;;;;;22.32;nan;97112.41;3507761;40;20482;-72
2021/06/08 10:49:37;;;;;;;36.87;29.00;;;;;;;22.00;nan;97106.03;3506217;40;20494;-72
2021/06/08 10:52:07;;;;;;;40.73;26.90;;;;;;;21.87;nan;97109.16;3505530;40;20549;-72
2021/06/08 10:54:40;;;;;;;39.53;27.50;;;;;;;21.94;nan;97108.53;3506654;40;20822;-71
2021/06/08 10:57:12;;;;;;;37.90;28.33;;;;;;;22.30;nan;97104.56;3508347;40;20547;-72
2021/06/08 10:59:41;;;;;;;38.70;26.60;;;;;;;22.59;nan;97110.41;3507178;40;20863;-72
2021/06/08 11:02:11;;;;;;;35.20;25.40;;;;;;;22.32;nan;97107.06;3489928;40;20579;-72
2021/06/08 11:04:52;;;;;;;37.30;27.60;;;;;;;21.29;nan;97104.66;3507154;40;20565;-71
2021/06/08 11:07:51;;;;;;;1054.47;130.40;;;;;;;21.56;nan;97103.63;3507997;40;20451;-70
2021/06/08 11:10:57;;;;;;;482.83;60.57;;;;;;;22.96;nan;97096.47;3492725;40;20925;-71
2021/06/08 11:13:54;;;;;;;37.13;26.50;;;;;;;22.79;nan;97092.19;3507261;40;20919;-71
2021/06/08 11:16:35;;;;;;;36.40;27.03;;;;;;;22.39;nan;97091.25;3507762;40;20867;-71
2021/06/08 11:19:03;;;;;;;38.40;27.10;;;;;;;22.21;nan;97092.22;3505379;40;20500;-73
2021/06/08 11:21:34;;;;;;;36.60;26.10;;;;;;;22.54;nan;97092.19;3506562;40;20911;-71
2021/06/08 11:24:02;;;;;;;40.00;28.73;;;;;;;21.85;nan;97097.00;3506719;40;20483;-73
2021/06/08 11:26:48;;;;;;;32.27;25.83;;;;;;;22.82;nan;97091.84;3495309;40;20487;-71
2021/06/08 11:29:49;;;;;;;34.10;25.17;;;;;;;22.64;nan;97087.53;3506103;40;20475;-72
2021/06/08 11:32:45;;;;;;;39.93;29.70;;;;;;;22.10;nan;97082.69;3467089;41;20469;-72
2021/06/08 11:35:17;;;;;;;34.73;24.20;;;;;;;22.84;nan;97085.31;3506712;40;20771;-72
2021/06/08 11:37:54;;;;;;;75.50;25.17;;;;;;;22.56;nan;97076.03;3506949;40;20887;-71
2021/06/08 11:41:10;;;;;;;36.53;24.37;;;;;;;22.60;nan;97078.22;3507744;40;20491;-72
2021/06/08 11:43:56;;;;;;;33.07;22.60;;;;;;;22.88;nan;97069.81;3506248;40;20800;-73
2021/06/08 11:46:29;;;;;;;36.23;24.13;;;;;;;23.29;nan;97073.19;3507644;40;20888;-72
2021/06/08 11:49:15;;;;;;;30.30;22.90;;;;;;;23.85;nan;97059.66;3507552;40;20783;-71